マレ の空港の天気 - METARとTAF

マレ国際空港 ( VRMM / MLE ) - モルディブ Hulhule Island, North Male Atoll
飛行場実況気象(Metar)
観測時間02/20 20:00 MVT (02/20 15:00 UTC)
風向・風速北西 3m/s
視程9000m
天気現象
少しの雲 雲底高度 550m
全天の8割程度の雲 雲底高度 3350m
気温28℃
湿度79%
気圧1012hPa
METARVRMM 201500Z 32005KT 9000 FEW018 BKN110 28/24 Q1012 NOSIG
過去の天気等 Google飛行場航空写真 Wunderground天気予報

過去48時間のMETAR

飛行場予報(TAF)
発表時間: 2/20 10:00 MVT (2/20 05:00 UTC)
予報対象時間: 20日11時 MVT ~ 21日17時 MVT
風向・風速北北東 4m/s
視程9,000m
少しの塔状積雲 雲底高度 550m
20日14時 MVT ~ 20日20時 MVT に一時的に
視程5,000m
天気現象弱い雷雨
全天の4割程度の積乱雲 雲底高度 520m
TAF VRMM 200500Z 2006/2112 02008KT 9000 FEW018TCU
TEMPO 2009/2015 5000 -TSRA SCT017CB